createdAt,value
2023-04-30T00:00:14.018Z,10.20
2023-04-30T00:01:13.292Z,10.30
2023-04-30T00:02:13.626Z,10.30
2023-04-30T00:03:13.749Z,10.30
2023-04-30T00:04:14.029Z,10.20
2023-04-30T00:05:13.222Z,10.30
2023-04-30T00:06:13.432Z,10.20
2023-04-30T00:07:13.395Z,10.30
2023-04-30T00:08:13.415Z,10.20
2023-04-30T00:09:13.306Z,10.20
2023-04-30T00:10:13.317Z,10.20
2023-04-30T00:11:13.223Z,10.10
2023-04-30T00:12:13.400Z,10.10
2023-04-30T00:13:13.394Z,10.00
2023-04-30T00:14:13.291Z,9.90
2023-04-30T00:15:13.810Z,9.90
2023-04-30T00:16:13.998Z,9.80
2023-04-30T00:17:12.927Z,9.80
2023-04-30T00:18:13.088Z,9.80
2023-04-30T00:19:13.030Z,9.80
2023-04-30T00:20:13.208Z,9.90
2023-04-30T00:21:13.399Z,10.10
2023-04-30T00:22:13.411Z,10.00
2023-04-30T00:23:13.812Z,10.00
2023-04-30T00:24:13.676Z,10.00
2023-04-30T00:25:13.601Z,10.00
2023-04-30T00:26:13.744Z,9.90
2023-04-30T00:27:14.020Z,9.80
2023-04-30T00:28:14.509Z,9.90
2023-04-30T00:29:13.572Z,9.80
2023-04-30T00:30:13.513Z,9.90
2023-04-30T00:31:13.979Z,10.00
2023-04-30T00:32:13.107Z,10.00
2023-04-30T00:33:13.765Z,10.00
2023-04-30T00:34:14.072Z,10.00
2023-04-30T00:35:13.017Z,10.00
2023-04-30T00:36:13.061Z,9.90
2023-04-30T00:37:13.314Z,10.00
2023-04-30T00:38:13.678Z,9.90
2023-04-30T00:39:13.669Z,9.70
2023-04-30T00:40:13.455Z,9.50
2023-04-30T00:41:13.744Z,9.50
2023-04-30T00:42:13.948Z,9.50
2023-04-30T00:43:13.410Z,9.60
2023-04-30T00:44:13.610Z,9.60
2023-04-30T00:45:13.772Z,9.60
2023-04-30T00:46:13.950Z,9.50
2023-04-30T00:47:13.030Z,9.70
2023-04-30T00:48:13.081Z,9.70
2023-04-30T00:49:13.080Z,9.60
2023-04-30T00:50:12.987Z,9.70
2023-04-30T00:51:12.881Z,9.80
2023-04-30T00:52:13.960Z,9.80
2023-04-30T00:53:13.009Z,9.90
2023-04-30T00:54:13.127Z,9.80
2023-04-30T00:55:13.228Z,9.80
2023-04-30T00:56:13.334Z,9.80
2023-04-30T00:57:13.876Z,9.80
2023-04-30T00:58:12.951Z,9.80
2023-04-30T00:59:13.041Z,9.80
2023-04-30T01:00:13.223Z,9.80
2023-04-30T01:01:13.087Z,9.80
2023-04-30T01:02:12.986Z,9.90
2023-04-30T01:03:13.563Z,9.90
2023-04-30T01:04:13.750Z,9.80
2023-04-30T01:05:14.094Z,9.80
2023-04-30T01:06:13.438Z,9.80
2023-04-30T01:07:13.404Z,9.70
2023-04-30T01:08:13.450Z,9.70
2023-04-30T01:09:13.616Z,9.50
2023-04-30T01:10:13.655Z,9.40
2023-04-30T01:11:13.645Z,9.30
2023-04-30T01:12:13.553Z,9.40
2023-04-30T01:13:13.878Z,9.40
2023-04-30T01:14:13.177Z,9.50
2023-04-30T01:15:13.228Z,9.60
2023-04-30T01:16:13.438Z,9.70
2023-04-30T01:17:13.528Z,9.70
2023-04-30T01:18:13.656Z,9.70
2023-04-30T01:19:14.024Z,9.70
2023-04-30T01:20:13.382Z,9.50
2023-04-30T01:21:13.914Z,9.40
2023-04-30T01:22:13.026Z,9.30
2023-04-30T01:23:12.902Z,9.30
2023-04-30T01:24:12.846Z,9.30
2023-04-30T01:25:13.966Z,9.30
2023-04-30T01:26:13.343Z,9.20
2023-04-30T01:27:13.417Z,9.20
2023-04-30T01:28:13.365Z,9.40
2023-04-30T01:29:13.703Z,9.60
2023-04-30T01:30:13.833Z,9.60
2023-04-30T01:31:13.918Z,9.60
2023-04-30T01:32:13.014Z,9.60
2023-04-30T01:33:12.943Z,9.50
2023-04-30T01:34:13.076Z,9.40
2023-04-30T01:35:13.348Z,9.30
2023-04-30T01:36:13.691Z,9.20
2023-04-30T01:37:13.753Z,9.10
2023-04-30T01:38:14.042Z,9.20
2023-04-30T01:39:12.871Z,9.20
2023-04-30T01:40:14.436Z,9.10
2023-04-30T01:41:13.545Z,9.10
2023-04-30T01:42:14.012Z,9.00
2023-04-30T01:43:13.343Z,8.90
2023-04-30T01:44:13.238Z,8.90
2023-04-30T01:45:13.548Z,8.80
2023-04-30T01:46:13.663Z,8.90
2023-04-30T01:47:14.922Z,8.90
2023-04-30T01:48:12.911Z,8.70
2023-04-30T01:49:13.161Z,8.50
2023-04-30T01:50:13.367Z,8.60
2023-04-30T01:51:13.500Z,8.50
2023-04-30T01:52:13.380Z,8.60
2023-04-30T01:53:13.430Z,8.70
2023-04-30T01:54:13.374Z,8.60
2023-04-30T01:55:13.732Z,8.70
2023-04-30T01:56:13.642Z,8.80
2023-04-30T01:57:13.836Z,8.70
2023-04-30T01:58:13.065Z,8.70
2023-04-30T01:59:13.169Z,8.80
2023-04-30T02:00:14.387Z,9.00
2023-04-30T02:01:13.520Z,9.00
2023-04-30T02:02:13.496Z,9.10
2023-04-30T02:03:13.484Z,9.10
2023-04-30T02:04:13.796Z,9.20
2023-04-30T02:05:14.075Z,9.30
2023-04-30T02:06:13.199Z,9.10
2023-04-30T02:07:13.069Z,9.10
2023-04-30T02:08:13.047Z,9.00
2023-04-30T02:09:12.922Z,9.10
2023-04-30T02:10:13.047Z,9.10
2023-04-30T02:11:13.344Z,9.10
2023-04-30T02:12:13.243Z,9.10
2023-04-30T02:13:13.034Z,8.90
2023-04-30T02:14:13.152Z,8.80
2023-04-30T02:15:13.315Z,8.80
2023-04-30T02:16:13.321Z,8.60
2023-04-30T02:17:13.371Z,8.60
2023-04-30T02:18:13.430Z,8.70
2023-04-30T02:19:13.423Z,8.90
2023-04-30T02:20:13.508Z,8.70
2023-04-30T02:21:13.520Z,8.60
2023-04-30T02:22:13.684Z,8.70
2023-04-30T02:23:13.628Z,8.50
2023-04-30T02:24:13.478Z,8.70
2023-04-30T02:25:13.640Z,8.70
2023-04-30T02:26:13.678Z,8.60
2023-04-30T02:27:13.674Z,8.60
2023-04-30T02:28:13.523Z,8.70
2023-04-30T02:29:13.753Z,8.50
2023-04-30T02:30:13.760Z,8.70
2023-04-30T02:31:13.802Z,8.40
2023-04-30T02:32:14.154Z,8.30
2023-04-30T02:33:14.769Z,8.50
2023-04-30T02:34:13.882Z,8.50
2023-04-30T02:35:12.864Z,8.40
2023-04-30T02:36:12.913Z,8.40
2023-04-30T02:37:12.959Z,8.50
2023-04-30T02:38:13.014Z,8.50
2023-04-30T02:39:13.210Z,8.50
2023-04-30T02:40:13.050Z,8.30
2023-04-30T02:41:13.060Z,8.30
2023-04-30T02:42:13.145Z,8.30
2023-04-30T02:43:13.225Z,8.50
2023-04-30T02:44:13.217Z,8.40
2023-04-30T02:45:13.378Z,8.30
2023-04-30T02:46:13.317Z,8.20
2023-04-30T02:47:13.680Z,8.30
2023-04-30T02:48:13.733Z,8.20
2023-04-30T02:49:13.833Z,8.40
2023-04-30T02:50:13.703Z,8.40
2023-04-30T02:51:13.716Z,8.50
2023-04-30T02:52:13.740Z,8.40
2023-04-30T02:53:14.048Z,8.50
2023-04-30T02:54:13.015Z,8.50
2023-04-30T02:55:12.938Z,8.30
2023-04-30T02:56:13.922Z,8.20
2023-04-30T02:57:12.863Z,8.20
2023-04-30T02:58:13.967Z,8.20
2023-04-30T02:59:13.302Z,8.00
2023-04-30T03:00:13.210Z,8.30
2023-04-30T03:01:13.380Z,8.30
2023-04-30T03:02:13.433Z,8.50
2023-04-30T03:03:13.873Z,8.40
2023-04-30T03:04:12.833Z,8.50
2023-04-30T03:05:13.910Z,8.60
2023-04-30T03:06:13.140Z,8.50
2023-04-30T03:07:13.032Z,8.50
2023-04-30T03:08:13.234Z,8.40
2023-04-30T03:09:13.252Z,8.50
2023-04-30T03:10:13.322Z,8.50
2023-04-30T03:11:13.279Z,8.40
2023-04-30T03:12:13.149Z,8.40
2023-04-30T03:13:13.261Z,8.40
2023-04-30T03:14:13.325Z,8.30
2023-04-30T03:15:13.583Z,8.30
2023-04-30T03:16:13.734Z,8.20
2023-04-30T03:17:13.889Z,8.10
2023-04-30T03:18:13.079Z,8.10
2023-04-30T03:19:13.207Z,8.00
2023-04-30T03:20:13.380Z,7.90
2023-04-30T03:21:13.631Z,7.70
2023-04-30T03:22:13.528Z,7.60
2023-04-30T03:23:13.381Z,7.60
2023-04-30T03:24:13.559Z,7.60
2023-04-30T03:25:13.763Z,7.50
2023-04-30T03:26:13.795Z,7.50
2023-04-30T03:27:13.860Z,7.50
2023-04-30T03:28:14.080Z,7.50
2023-04-30T03:29:13.148Z,7.60
2023-04-30T03:30:13.107Z,7.60
2023-04-30T03:31:13.234Z,7.60
2023-04-30T03:32:13.167Z,7.50
2023-04-30T03:33:13.310Z,7.50
2023-04-30T03:34:13.501Z,7.50
2023-04-30T03:35:13.728Z,7.50
2023-04-30T03:36:13.729Z,7.50
2023-04-30T03:37:14.015Z,7.50
2023-04-30T03:38:13.221Z,7.50
2023-04-30T03:39:13.098Z,7.40
2023-04-30T03:40:13.272Z,7.40
2023-04-30T03:41:13.511Z,7.30
2023-04-30T03:42:13.572Z,7.40
2023-04-30T03:43:13.704Z,7.30
2023-04-30T03:44:13.624Z,7.40
2023-04-30T03:45:13.574Z,7.50
2023-04-30T03:46:13.795Z,7.50
2023-04-30T03:47:13.972Z,7.50
2023-04-30T03:48:13.104Z,7.50
2023-04-30T03:49:13.054Z,7.50
2023-04-30T03:50:13.294Z,7.50
2023-04-30T03:51:13.401Z,7.40
2023-04-30T03:52:13.330Z,7.50
2023-04-30T03:53:13.404Z,7.50
2023-04-30T03:54:13.815Z,7.50
2023-04-30T03:55:13.653Z,7.30
2023-04-30T03:56:13.672Z,7.50
2023-04-30T03:57:13.645Z,7.50
2023-04-30T03:58:13.677Z,7.50
2023-04-30T03:59:13.565Z,7.40
2023-04-30T04:00:13.527Z,7.30
2023-04-30T04:01:13.545Z,7.30
2023-04-30T04:02:13.974Z,7.30
2023-04-30T04:03:13.428Z,7.30
2023-04-30T04:04:13.595Z,7.40
2023-04-30T04:05:13.853Z,7.50
2023-04-30T04:06:13.964Z,7.30
2023-04-30T04:07:13.105Z,7.30
2023-04-30T04:08:13.593Z,7.40
2023-04-30T04:09:13.585Z,7.40
2023-04-30T04:10:13.986Z,7.30
2023-04-30T04:11:13.049Z,7.30
2023-04-30T04:12:12.900Z,7.50
2023-04-30T04:13:12.857Z,7.50
2023-04-30T04:14:13.910Z,7.50
2023-04-30T04:15:13.045Z,7.60
2023-04-30T04:16:13.153Z,7.80
2023-04-30T04:17:13.341Z,7.40
2023-04-30T04:18:13.365Z,7.60
2023-04-30T04:19:13.481Z,7.50
2023-04-30T04:20:14.164Z,7.60
2023-04-30T04:21:13.316Z,7.80
2023-04-30T04:22:13.338Z,7.70
2023-04-30T04:23:13.240Z,7.70
2023-04-30T04:24:13.166Z,7.70
2023-04-30T04:25:13.689Z,7.50
2023-04-30T04:26:13.728Z,7.70
2023-04-30T04:27:13.756Z,7.70
2023-04-30T04:28:13.820Z,7.80
2023-04-30T04:29:13.742Z,7.60
2023-04-30T04:30:13.850Z,7.60
2023-04-30T04:31:14.196Z,7.60
2023-04-30T04:32:13.753Z,7.50
2023-04-30T04:33:14.090Z,7.60
2023-04-30T04:34:13.372Z,7.70
2023-04-30T04:35:13.560Z,7.60
2023-04-30T04:36:13.748Z,7.70
2023-04-30T04:37:14.226Z,7.70
2023-04-30T04:38:13.675Z,8.00
2023-04-30T04:39:13.650Z,8.10
2023-04-30T04:40:13.740Z,8.00
2023-04-30T04:41:13.779Z,8.00
2023-04-30T04:42:13.819Z,8.10
2023-04-30T04:43:13.988Z,7.80
2023-04-30T04:44:12.908Z,7.90
2023-04-30T04:45:13.150Z,7.90
2023-04-30T04:46:14.452Z,7.80
2023-04-30T04:47:13.774Z,7.80
2023-04-30T04:48:13.901Z,7.90
2023-04-30T04:49:13.096Z,7.70
2023-04-30T04:50:13.157Z,7.60
2023-04-30T04:51:13.077Z,7.50
2023-04-30T04:52:13.564Z,7.60
2023-04-30T04:53:13.843Z,7.70
2023-04-30T04:54:13.865Z,7.60
2023-04-30T04:55:13.971Z,7.60
2023-04-30T04:56:13.099Z,7.50
2023-04-30T04:57:13.174Z,7.70
2023-04-30T04:58:13.244Z,7.70
2023-04-30T04:59:13.407Z,7.80
2023-04-30T05:00:13.752Z,7.70
2023-04-30T05:01:13.983Z,7.70
2023-04-30T05:02:12.871Z,7.60
2023-04-30T05:03:13.942Z,7.80
2023-04-30T05:04:13.144Z,7.80
2023-04-30T05:05:13.426Z,7.90
2023-04-30T05:06:13.692Z,8.10
2023-04-30T05:07:13.985Z,7.90
2023-04-30T05:08:13.062Z,8.00
2023-04-30T05:09:13.084Z,8.10
2023-04-30T05:10:13.440Z,7.90
2023-04-30T05:11:15.504Z,8.10
2023-04-30T05:12:12.946Z,8.10
2023-04-30T05:13:12.662Z,8.10
2023-04-30T05:14:13.686Z,8.20
2023-04-30T05:15:18.676Z,8.40
2023-04-30T05:16:13.835Z,8.50
2023-04-30T05:17:13.950Z,8.50
2023-04-30T05:18:13.067Z,8.50
2023-04-30T05:19:14.384Z,8.50
2023-04-30T05:20:13.505Z,8.50
2023-04-30T05:21:13.603Z,8.60
2023-04-30T05:22:13.734Z,8.40
2023-04-30T05:23:13.780Z,8.30
2023-04-30T05:24:13.845Z,8.40
2023-04-30T05:25:12.885Z,8.10
2023-04-30T05:26:13.193Z,8.20
2023-04-30T05:27:13.131Z,8.40
2023-04-30T05:28:13.259Z,8.60
2023-04-30T05:29:13.268Z,8.60
2023-04-30T05:30:13.493Z,8.40
2023-04-30T05:31:13.614Z,8.20
2023-04-30T05:32:13.656Z,8.50
2023-04-30T05:33:13.837Z,8.70
2023-04-30T05:34:14.100Z,8.90
2023-04-30T05:35:13.268Z,8.90
2023-04-30T05:36:13.305Z,8.60
2023-04-30T05:37:13.512Z,8.80
2023-04-30T05:38:13.710Z,9.00
2023-04-30T05:39:13.612Z,9.10
2023-04-30T05:40:13.467Z,9.20
2023-04-30T05:41:13.540Z,9.20
2023-04-30T05:42:13.682Z,9.10
2023-04-30T05:43:13.786Z,9.00
2023-04-30T05:44:14.038Z,9.00
2023-04-30T05:45:12.901Z,9.00
2023-04-30T05:46:13.220Z,9.10
2023-04-30T05:47:13.256Z,9.10
2023-04-30T05:48:13.496Z,9.30
2023-04-30T05:49:13.485Z,9.10
2023-04-30T05:50:13.735Z,9.10
2023-04-30T05:51:13.904Z,9.30
2023-04-30T05:52:13.046Z,9.30
2023-04-30T05:53:13.085Z,9.40
2023-04-30T05:54:13.202Z,9.10
2023-04-30T05:55:13.410Z,9.10
2023-04-30T05:56:13.404Z,9.40
2023-04-30T05:57:13.668Z,9.40
2023-04-30T05:58:13.693Z,9.50
2023-04-30T05:59:14.074Z,9.50
2023-04-30T06:00:13.064Z,9.60
2023-04-30T06:01:12.964Z,9.40
2023-04-30T06:02:12.818Z,9.50
2023-04-30T06:03:14.066Z,9.70
2023-04-30T06:04:13.475Z,9.60
2023-04-30T06:05:15.930Z,9.70
2023-04-30T06:06:13.363Z,10.00
2023-04-30T06:07:13.419Z,10.00
2023-04-30T06:08:18.426Z,10.00
2023-04-30T06:09:42.536Z,9.90
2023-04-30T06:10:13.549Z,10.00
2023-04-30T06:11:13.711Z,9.70
2023-04-30T06:12:13.806Z,9.90
2023-04-30T06:13:14.221Z,10.10
2023-04-30T06:14:13.540Z,9.90
2023-04-30T06:15:13.620Z,10.00
2023-04-30T06:16:52.833Z,10.20
2023-04-30T06:17:13.811Z,10.30
2023-04-30T06:18:13.867Z,10.40
2023-04-30T06:19:14.195Z,10.30
2023-04-30T06:20:13.437Z,9.80
2023-04-30T06:21:13.453Z,10.20
2023-04-30T06:22:13.877Z,10.00
2023-04-30T06:23:13.983Z,9.80
2023-04-30T06:24:13.123Z,10.10
2023-04-30T06:25:13.230Z,10.20
2023-04-30T06:26:13.219Z,10.30
2023-04-30T06:27:13.579Z,10.20
2023-04-30T06:28:13.719Z,10.40
2023-04-30T06:29:13.950Z,10.50
2023-04-30T06:30:13.009Z,10.40
2023-04-30T06:31:12.967Z,9.90
2023-04-30T06:32:13.405Z,10.20
2023-04-30T06:33:13.250Z,10.40
2023-04-30T06:34:13.097Z,10.20
2023-04-30T06:35:13.819Z,10.60
2023-04-30T06:36:13.970Z,10.20
2023-04-30T06:37:12.982Z,10.60
2023-04-30T06:38:12.944Z,10.30
2023-04-30T06:39:13.012Z,10.30
2023-04-30T06:40:13.118Z,10.30
2023-04-30T06:41:13.306Z,10.70
2023-04-30T06:42:13.486Z,10.90
2023-04-30T06:43:13.317Z,10.90
2023-04-30T06:44:13.555Z,10.80
2023-04-30T06:45:13.945Z,11.10
2023-04-30T06:46:28.878Z,11.00
2023-04-30T06:47:12.909Z,10.90
2023-04-30T06:48:13.057Z,10.80
2023-04-30T06:49:12.959Z,10.70
2023-04-30T06:50:12.830Z,10.90
2023-04-30T06:51:13.847Z,10.80
2023-04-30T06:52:13.872Z,10.90
2023-04-30T06:53:13.941Z,10.70
2023-04-30T06:54:13.040Z,10.50
2023-04-30T06:55:12.924Z,10.90
2023-04-30T06:56:13.111Z,10.90
2023-04-30T06:57:13.154Z,11.00
2023-04-30T06:58:13.158Z,10.90
2023-04-30T06:59:13.135Z,10.70
2023-04-30T07:00:13.071Z,11.30
2023-04-30T07:01:13.021Z,11.30
2023-04-30T07:02:13.197Z,11.60
2023-04-30T07:03:13.584Z,11.50
2023-04-30T07:04:13.810Z,11.60
2023-04-30T07:05:13.749Z,11.70
2023-04-30T07:06:13.764Z,11.80
2023-04-30T07:07:13.858Z,11.40
2023-04-30T07:08:13.855Z,11.70
2023-04-30T07:09:13.989Z,11.90
2023-04-30T07:10:12.850Z,12.00
2023-04-30T07:11:13.822Z,12.10
2023-04-30T07:12:13.996Z,12.20
2023-04-30T07:13:13.081Z,12.10
2023-04-30T07:14:13.408Z,12.30
2023-04-30T07:15:13.465Z,12.20
2023-04-30T07:16:13.737Z,12.20
2023-04-30T07:17:14.123Z,12.60
2023-04-30T07:18:13.625Z,11.90
2023-04-30T07:19:13.716Z,11.50
2023-04-30T07:20:13.971Z,11.90
2023-04-30T07:21:13.289Z,12.40
2023-04-30T07:22:13.508Z,12.30
2023-04-30T07:23:13.848Z,12.40
2023-04-30T07:24:13.879Z,12.30
2023-04-30T07:25:12.842Z,12.40
2023-04-30T07:26:13.757Z,12.50
2023-04-30T07:27:14.056Z,12.80
2023-04-30T07:28:13.576Z,12.00
2023-04-30T07:29:13.572Z,11.90
2023-04-30T07:30:13.761Z,11.90
2023-04-30T07:31:13.841Z,11.70
2023-04-30T07:32:13.964Z,11.80
2023-04-30T07:33:13.336Z,11.40
2023-04-30T07:34:14.400Z,11.40
2023-04-30T07:35:13.452Z,11.50
2023-04-30T07:36:14.376Z,11.40
2023-04-30T07:37:13.870Z,11.70
2023-04-30T07:38:13.903Z,12.40
2023-04-30T07:39:12.995Z,12.30
2023-04-30T07:40:15.373Z,12.40
2023-04-30T07:41:13.440Z,12.30
2023-04-30T07:42:13.546Z,12.50
2023-04-30T07:43:13.678Z,12.00
2023-04-30T07:44:14.019Z,12.40
2023-04-30T07:45:12.949Z,12.70
2023-04-30T07:46:13.983Z,12.70
2023-04-30T07:47:13.076Z,12.40
2023-04-30T07:48:13.240Z,12.90
2023-04-30T07:49:13.267Z,13.00
2023-04-30T07:50:13.304Z,12.50
2023-04-30T07:51:13.151Z,12.80
2023-04-30T07:52:13.100Z,13.10
2023-04-30T07:53:13.381Z,12.90
2023-04-30T07:54:13.337Z,12.80
2023-04-30T07:55:13.452Z,13.10
2023-04-30T07:56:13.397Z,13.20
2023-04-30T07:57:13.686Z,13.00
2023-04-30T07:58:13.987Z,13.40
2023-04-30T07:59:13.066Z,13.10
2023-04-30T08:00:13.188Z,12.90
2023-04-30T08:01:13.267Z,13.30
2023-04-30T08:02:13.196Z,12.90
2023-04-30T08:03:13.455Z,13.30
2023-04-30T08:04:13.610Z,12.90
2023-04-30T08:05:13.766Z,13.20
2023-04-30T08:06:13.746Z,12.90
2023-04-30T08:07:14.151Z,13.10
2023-04-30T08:08:14.374Z,12.70
2023-04-30T08:09:14.649Z,13.10
2023-04-30T08:10:18.641Z,13.20
2023-04-30T08:11:15.680Z,13.70
2023-04-30T08:12:15.024Z,13.10
2023-04-30T08:13:14.122Z,13.50
2023-04-30T08:14:14.104Z,13.60
2023-04-30T08:15:15.055Z,13.50
2023-04-30T08:16:14.401Z,13.50
2023-04-30T08:17:14.545Z,13.70
2023-04-30T08:18:19.109Z,14.10
2023-04-30T08:19:15.293Z,14.40
2023-04-30T08:20:15.268Z,14.30
2023-04-30T08:21:14.531Z,14.10
2023-04-30T08:22:15.248Z,13.70
2023-04-30T08:23:15.172Z,13.50
2023-04-30T08:24:15.113Z,13.60
2023-04-30T08:25:19.461Z,14.00
2023-04-30T08:26:14.998Z,13.90
2023-04-30T08:27:14.627Z,13.70
2023-04-30T08:28:15.788Z,13.70
2023-04-30T08:29:15.352Z,14.20
2023-04-30T08:30:14.805Z,14.40
2023-04-30T08:31:17.347Z,14.50
2023-04-30T08:32:15.144Z,14.60
2023-04-30T08:33:14.781Z,14.70
2023-04-30T08:34:15.250Z,14.60
2023-04-30T08:35:14.783Z,14.70
2023-04-30T08:36:15.196Z,14.60
2023-04-30T08:37:14.756Z,14.40
2023-04-30T08:38:14.664Z,14.40
2023-04-30T08:39:15.192Z,14.60
2023-04-30T08:40:14.503Z,15.00
2023-04-30T08:41:15.201Z,14.80
2023-04-30T08:42:14.734Z,15.00
2023-04-30T08:43:16.457Z,14.40
2023-04-30T08:44:14.772Z,14.20
2023-04-30T08:45:15.159Z,14.50
2023-04-30T08:46:14.579Z,14.90
2023-04-30T08:47:15.666Z,14.30
2023-04-30T08:48:15.538Z,14.40
2023-04-30T08:49:14.753Z,14.80
2023-04-30T08:50:15.694Z,14.70
2023-04-30T08:51:15.727Z,14.10
2023-04-30T08:52:15.893Z,14.20
2023-04-30T08:53:15.677Z,14.00
2023-04-30T08:54:15.729Z,14.20
2023-04-30T08:55:15.149Z,13.90
2023-04-30T08:56:16.040Z,14.40
2023-04-30T08:57:14.618Z,14.90
2023-04-30T08:58:14.705Z,14.70
2023-04-30T08:59:15.091Z,14.40
2023-04-30T09:00:15.275Z,13.90
2023-04-30T09:01:15.178Z,14.10
2023-04-30T09:02:15.013Z,14.30
2023-04-30T09:03:22.568Z,14.90
2023-04-30T09:04:15.289Z,14.40
2023-04-30T09:05:15.079Z,14.10
2023-04-30T09:06:18.144Z,14.50
2023-04-30T09:07:15.591Z,14.10
2023-04-30T09:08:15.722Z,14.20
2023-04-30T09:09:17.307Z,14.20
2023-04-30T09:10:15.178Z,14.20
2023-04-30T09:11:15.298Z,14.70
2023-04-30T09:12:17.859Z,15.20
2023-04-30T09:13:16.549Z,15.60
2023-04-30T09:14:15.836Z,15.00
2023-04-30T09:15:15.758Z,15.20
2023-04-30T09:16:18.123Z,15.30
2023-04-30T09:17:14.924Z,15.40
2023-04-30T09:18:14.512Z,15.20
2023-04-30T09:19:15.833Z,15.30
2023-04-30T09:20:14.198Z,15.10
2023-04-30T09:21:14.947Z,15.00
2023-04-30T09:22:19.319Z,15.60
2023-04-30T09:23:15.182Z,15.40
2023-04-30T09:24:16.650Z,16.10
2023-04-30T09:25:14.413Z,16.40
2023-04-30T09:26:14.692Z,16.30
2023-04-30T09:27:15.215Z,17.20
2023-04-30T09:28:14.938Z,17.70
2023-04-30T09:29:16.950Z,17.90
2023-04-30T09:30:15.095Z,17.60
2023-04-30T09:31:15.467Z,16.30
2023-04-30T09:32:15.568Z,16.40
2023-04-30T09:33:15.968Z,16.90
2023-04-30T09:34:14.996Z,17.40
2023-04-30T09:35:14.824Z,17.80
2023-04-30T09:36:15.550Z,18.60
2023-04-30T09:37:13.814Z,17.70
2023-04-30T09:38:13.826Z,17.40
2023-04-30T09:39:15.651Z,16.80
2023-04-30T09:40:13.311Z,16.60
2023-04-30T09:41:13.269Z,17.20
2023-04-30T09:42:13.235Z,16.90
2023-04-30T09:43:13.058Z,17.50
2023-04-30T09:44:13.402Z,17.90
2023-04-30T09:45:16.232Z,18.00
2023-04-30T09:46:13.332Z,18.10
2023-04-30T09:47:13.326Z,18.00
2023-04-30T09:48:17.455Z,18.10
2023-04-30T09:49:12.857Z,17.10
2023-04-30T09:50:13.264Z,16.90
2023-04-30T09:51:13.415Z,17.00
2023-04-30T09:52:13.438Z,16.20
2023-04-30T09:53:13.371Z,16.40
2023-04-30T09:54:13.297Z,16.30
2023-04-30T09:55:13.542Z,16.70
2023-04-30T09:56:13.864Z,17.40
2023-04-30T09:57:13.848Z,18.80
2023-04-30T09:58:13.912Z,19.40
2023-04-30T09:59:13.449Z,18.40
2023-04-30T10:00:13.424Z,19.50
2023-04-30T10:01:13.705Z,19.90
2023-04-30T10:02:13.889Z,19.90
2023-04-30T10:03:13.005Z,20.60
2023-04-30T10:04:13.594Z,19.40
2023-04-30T10:05:13.724Z,19.20
2023-04-30T10:06:13.741Z,20.20
2023-04-30T10:07:15.882Z,20.80
2023-04-30T10:08:14.736Z,18.50
2023-04-30T10:09:13.679Z,19.70
2023-04-30T10:10:13.832Z,20.80
2023-04-30T10:11:14.202Z,19.20
2023-04-30T10:12:13.538Z,18.70
2023-04-30T10:13:13.689Z,20.10
2023-04-30T10:14:19.816Z,20.30
2023-04-30T10:15:13.967Z,20.60
2023-04-30T10:16:13.250Z,20.80
2023-04-30T10:17:13.318Z,19.80
2023-04-30T10:18:13.532Z,20.40
2023-04-30T10:19:13.752Z,18.50
2023-04-30T10:20:14.095Z,18.30
2023-04-30T10:21:13.055Z,17.60
2023-04-30T10:22:12.989Z,17.30
2023-04-30T10:23:13.143Z,16.80
2023-04-30T10:24:13.210Z,16.60
2023-04-30T10:25:13.201Z,16.90
2023-04-30T10:26:13.248Z,18.20
2023-04-30T10:27:14.019Z,18.70
2023-04-30T10:28:13.178Z,19.90
2023-04-30T10:29:13.296Z,19.70
2023-04-30T10:30:13.230Z,20.20
2023-04-30T10:31:13.124Z,20.10
2023-04-30T10:32:13.430Z,19.20
2023-04-30T10:33:16.426Z,19.40
2023-04-30T10:34:12.947Z,20.00
2023-04-30T10:35:13.020Z,18.40
2023-04-30T10:36:12.923Z,17.80
2023-04-30T10:37:13.183Z,17.90
2023-04-30T10:38:13.059Z,17.60
2023-04-30T10:39:13.266Z,18.70
2023-04-30T10:40:13.706Z,17.40
2023-04-30T10:41:14.031Z,17.90
2023-04-30T10:42:13.158Z,17.70
2023-04-30T10:43:13.192Z,17.80
2023-04-30T10:44:13.329Z,18.70
2023-04-30T10:45:13.558Z,19.00
2023-04-30T10:46:13.789Z,19.00
2023-04-30T10:47:13.926Z,20.60
2023-04-30T10:48:13.027Z,21.80
2023-04-30T10:49:13.098Z,19.90
2023-04-30T10:50:13.518Z,18.60
2023-04-30T10:51:13.662Z,18.30
2023-04-30T10:52:13.699Z,19.00
2023-04-30T10:53:13.621Z,19.80
2023-04-30T10:54:13.565Z,19.20
2023-04-30T10:55:13.460Z,19.10
2023-04-30T10:56:14.126Z,19.60
2023-04-30T10:57:13.144Z,20.10
2023-04-30T10:58:13.157Z,20.60
2023-04-30T10:59:13.237Z,20.60
2023-04-30T11:01:18.330Z,20.50
2023-04-30T11:02:13.764Z,20.00
2023-04-30T11:03:14.146Z,19.20
2023-04-30T11:04:15.357Z,18.60
2023-04-30T11:05:14.029Z,19.60
2023-04-30T11:06:13.058Z,18.70
2023-04-30T11:07:13.159Z,18.00
2023-04-30T11:08:13.109Z,18.00
2023-04-30T11:09:12.977Z,17.90
2023-04-30T11:10:12.939Z,18.40
2023-04-30T11:11:12.834Z,18.90
2023-04-30T11:12:13.869Z,18.30
2023-04-30T11:13:13.179Z,18.40
2023-04-30T11:14:13.018Z,19.70
2023-04-30T11:15:13.107Z,20.90
2023-04-30T11:16:13.169Z,22.30
2023-04-30T11:17:13.123Z,22.00
2023-04-30T11:18:13.243Z,21.30
2023-04-30T11:19:13.306Z,20.20
2023-04-30T11:20:13.297Z,18.80
2023-04-30T11:21:13.321Z,17.80
2023-04-30T11:22:13.203Z,17.20
2023-04-30T11:23:14.204Z,17.90
2023-04-30T11:24:13.409Z,17.60
2023-04-30T11:25:13.719Z,18.30
2023-04-30T11:26:13.932Z,18.80
2023-04-30T11:27:12.750Z,19.80
2023-04-30T11:28:13.712Z,19.00
2023-04-30T11:29:13.793Z,19.30
2023-04-30T11:30:13.868Z,20.60
2023-04-30T11:31:15.317Z,20.20
2023-04-30T11:32:13.742Z,20.30
2023-04-30T11:33:13.611Z,21.50
2023-04-30T11:34:13.538Z,21.80
2023-04-30T11:35:13.524Z,21.60
2023-04-30T11:36:13.697Z,20.40
2023-04-30T11:37:19.555Z,20.70
2023-04-30T11:38:13.540Z,20.50
2023-04-30T11:39:13.407Z,21.90
2023-04-30T11:40:13.345Z,21.00
2023-04-30T11:41:13.368Z,19.50
2023-04-30T11:42:13.308Z,18.40
2023-04-30T11:43:13.164Z,18.90
2023-04-30T11:44:13.234Z,18.80
2023-04-30T11:45:13.432Z,18.90
2023-04-30T11:46:13.472Z,20.00
2023-04-30T11:47:13.557Z,20.00
2023-04-30T11:48:13.583Z,19.50
2023-04-30T11:49:13.752Z,19.00
2023-04-30T11:50:13.708Z,18.90
2023-04-30T11:51:13.849Z,19.80
2023-04-30T11:52:14.109Z,21.00
2023-04-30T11:53:13.159Z,20.10
2023-04-30T11:54:13.180Z,20.40
2023-04-30T11:55:13.812Z,20.00
2023-04-30T11:56:13.808Z,19.80
2023-04-30T11:57:14.241Z,21.90
2023-04-30T11:58:13.308Z,23.00
2023-04-30T11:59:13.336Z,21.70
2023-04-30T12:00:13.268Z,20.80
2023-04-30T12:01:13.285Z,20.30
2023-04-30T12:02:13.841Z,20.70
2023-04-30T12:03:12.986Z,21.70
2023-04-30T12:04:13.252Z,21.00
2023-04-30T12:05:13.745Z,22.00
2023-04-30T12:06:13.725Z,22.40
2023-04-30T12:07:14.073Z,21.10
2023-04-30T12:08:18.264Z,19.90
2023-04-30T12:09:13.223Z,19.40
2023-04-30T12:10:13.344Z,20.70
2023-04-30T12:11:13.442Z,20.20
2023-04-30T12:12:13.491Z,21.10
2023-04-30T12:13:13.420Z,21.90
2023-04-30T12:14:13.286Z,21.10
2023-04-30T12:15:13.124Z,22.90
2023-04-30T12:16:13.159Z,20.10
2023-04-30T12:17:13.111Z,20.20
2023-04-30T12:18:13.596Z,19.20
2023-04-30T12:19:13.639Z,19.50
2023-04-30T12:20:13.650Z,19.80
2023-04-30T12:21:13.934Z,19.00
2023-04-30T12:22:12.874Z,18.60
2023-04-30T12:23:13.982Z,19.20
2023-04-30T12:24:12.776Z,21.40
2023-04-30T12:25:13.781Z,21.80
2023-04-30T12:26:13.742Z,21.20
2023-04-30T12:27:13.661Z,20.60
2023-04-30T12:28:13.589Z,19.10
2023-04-30T12:29:15.268Z,18.20
2023-04-30T12:30:13.554Z,18.90
2023-04-30T12:31:13.527Z,20.30
2023-04-30T12:32:13.528Z,18.80
2023-04-30T12:33:13.876Z,19.30
2023-04-30T12:34:12.907Z,19.20
2023-04-30T12:35:12.704Z,19.40
2023-04-30T12:36:13.957Z,20.30
2023-04-30T12:37:12.857Z,20.00
2023-04-30T12:38:19.001Z,19.60
2023-04-30T12:39:13.328Z,19.30
2023-04-30T12:40:13.416Z,20.90
2023-04-30T12:41:13.348Z,21.00
2023-04-30T12:42:13.516Z,21.70
2023-04-30T12:43:13.790Z,22.20
2023-04-30T12:44:13.901Z,23.40
2023-04-30T12:45:13.908Z,23.80
2023-04-30T12:46:12.798Z,23.80
2023-04-30T12:47:13.864Z,23.70
2023-04-30T12:48:13.154Z,23.40
2023-04-30T12:49:13.363Z,22.30
2023-04-30T12:50:13.262Z,22.20
2023-04-30T12:51:13.355Z,21.60
2023-04-30T12:52:13.246Z,21.30
2023-04-30T12:53:13.163Z,20.10
2023-04-30T12:54:13.308Z,20.90
2023-04-30T12:55:13.386Z,20.00
2023-04-30T12:56:13.436Z,20.60
2023-04-30T12:57:13.291Z,20.10
2023-04-30T12:58:13.257Z,20.10
2023-04-30T12:59:13.104Z,21.00
2023-04-30T13:00:13.070Z,21.00
2023-04-30T13:01:13.309Z,21.50
2023-04-30T13:02:13.725Z,23.70
2023-04-30T13:03:13.860Z,24.20
2023-04-30T13:04:12.836Z,23.60